Terminal Aerodrome Forecast
Issued by NWS

Current Version | Previous Version | Text Only | Print | Product List | Glossary Off
Versions: 1 2 3 4 5 6 7 8 9 10 11 12 13 14 15 16 17 18 19 20 21 22

290
FTUS41 KILN 241136
TAFLUK
TAF
KLUK 241136Z 2412/2512 20007KT P6SM SCT130 WS020/21040KT
     FM241400 20012G20KT P6SM BKN045
     FM250100 19005KT P6SM BKN090
     FM250900 18006KT P6SM BKN080 WS020/20050KT=

USA.gov is the U.S. government's official web portal to all federal, state and local government web resources and services.